createdAt,value
2023-04-18T00:00:29.920Z,71.49
2023-04-18T00:02:56.485Z,71.20
2023-04-18T00:05:23.169Z,73.14
2023-04-18T00:07:49.683Z,73.83
2023-04-18T00:10:16.427Z,72.64
2023-04-18T00:12:42.986Z,72.77
2023-04-18T00:15:09.858Z,71.86
2023-04-18T00:17:37.736Z,70.90
2023-04-18T00:20:04.434Z,71.13
2023-04-18T00:22:30.895Z,71.63
2023-04-18T00:24:57.296Z,70.78
2023-04-18T00:27:23.748Z,71.36
2023-04-18T00:29:50.286Z,71.59
2023-04-18T00:32:16.708Z,72.26
2023-04-18T00:34:44.527Z,72.63
2023-04-18T00:37:10.967Z,72.79
2023-04-18T00:39:37.520Z,73.50
2023-04-18T00:42:04.126Z,73.37
2023-04-18T00:44:30.899Z,73.05
2023-04-18T00:46:57.375Z,71.78
2023-04-18T00:49:24.094Z,72.79
2023-04-18T00:51:51.933Z,73.28
2023-04-18T00:54:18.417Z,72.49
2023-04-18T00:56:44.858Z,72.29
2023-04-18T00:59:11.348Z,72.55
2023-04-18T01:01:37.865Z,72.73
2023-04-18T01:04:04.438Z,72.35
2023-04-18T01:06:31.008Z,72.85
2023-04-18T01:08:58.814Z,72.68
2023-04-18T01:11:25.294Z,73.37
2023-04-18T01:13:58.499Z,74.32
2023-04-18T01:16:25.074Z,74.06
2023-04-18T01:18:51.594Z,73.79
2023-04-18T01:21:18.049Z,74.12
2023-04-18T01:23:44.481Z,74.22
2023-04-18T01:26:12.321Z,74.00
2023-04-18T01:28:38.768Z,73.51
2023-04-18T01:31:05.429Z,73.39
2023-04-18T01:33:31.911Z,72.44
2023-04-18T01:35:58.531Z,72.52
2023-04-18T01:38:24.930Z,71.90
2023-04-18T01:40:51.400Z,71.72
2023-04-18T01:43:19.247Z,72.28
2023-04-18T01:45:45.710Z,72.11
2023-04-18T01:48:12.152Z,71.91
2023-04-18T01:50:38.639Z,72.08
2023-04-18T01:53:05.082Z,72.59
2023-04-18T01:55:31.541Z,72.40
2023-04-18T01:57:57.970Z,72.77
2023-04-18T02:00:25.856Z,72.01
2023-04-18T02:02:52.434Z,71.84
2023-04-18T02:05:18.968Z,72.49
2023-04-18T02:07:45.406Z,73.07
2023-04-18T02:10:11.858Z,73.68
2023-04-18T02:12:38.280Z,73.04
2023-04-18T02:15:05.307Z,73.25
2023-04-18T02:17:33.209Z,74.81
2023-04-18T02:19:59.716Z,74.25
2023-04-18T02:22:26.253Z,73.45
2023-04-18T02:24:52.721Z,73.05
2023-04-18T02:27:19.197Z,74.96
2023-04-18T02:29:45.638Z,75.32
2023-04-18T02:32:12.261Z,74.85
2023-04-18T02:34:40.220Z,75.56
2023-04-18T02:37:06.664Z,75.16
2023-04-18T02:39:33.222Z,75.18
2023-04-18T02:41:59.754Z,75.51
2023-04-18T02:44:26.363Z,74.86
2023-04-18T02:46:52.825Z,74.26
2023-04-18T02:49:19.262Z,74.80
2023-04-18T02:51:47.127Z,75.59
2023-04-18T02:54:13.877Z,76.23
2023-04-18T02:56:40.590Z,76.37
2023-04-18T02:59:07.080Z,75.87
2023-04-18T03:01:33.613Z,75.87
2023-04-18T03:04:00.063Z,75.24
2023-04-18T03:06:26.511Z,73.96
2023-04-18T03:08:54.420Z,74.82
2023-04-18T03:11:20.880Z,74.55
2023-04-18T03:13:47.338Z,74.46
2023-04-18T03:16:13.804Z,75.00
2023-04-18T03:18:40.362Z,75.30
2023-04-18T03:21:06.771Z,74.71
2023-04-18T03:23:33.276Z,74.37
2023-04-18T03:26:01.102Z,74.97
2023-04-18T03:28:27.516Z,75.10
2023-04-18T03:30:53.990Z,74.85
2023-04-18T03:33:20.485Z,73.16
2023-04-18T03:35:47.093Z,74.94
2023-04-18T03:38:13.542Z,75.99
2023-04-18T03:40:40.120Z,74.08
2023-04-18T03:43:07.938Z,74.96
2023-04-18T03:45:34.439Z,73.87
2023-04-18T03:48:00.949Z,73.39
2023-04-18T03:50:27.557Z,73.18
2023-04-18T03:52:54.020Z,72.51
2023-04-18T03:55:20.631Z,72.44
2023-04-18T03:57:47.088Z,72.40
2023-04-18T04:00:15.435Z,72.12
2023-04-18T04:02:41.989Z,71.48
2023-04-18T04:05:08.703Z,73.94
2023-04-18T04:07:35.241Z,74.17
2023-04-18T04:10:01.728Z,73.56
2023-04-18T04:12:28.207Z,73.37
2023-04-18T04:14:54.667Z,72.83
2023-04-18T04:17:22.516Z,73.84
2023-04-18T04:19:49.188Z,74.83
2023-04-18T04:22:15.668Z,74.84
2023-04-18T04:24:42.122Z,73.51
2023-04-18T04:27:08.686Z,73.91
2023-04-18T04:29:35.131Z,73.77
2023-04-18T04:32:01.636Z,73.14
2023-04-18T04:34:29.533Z,73.93
2023-04-18T04:36:56.046Z,74.99
2023-04-18T04:39:22.530Z,73.88
2023-04-18T04:41:49.088Z,74.96
2023-04-18T04:44:15.806Z,73.92
2023-04-18T04:46:42.454Z,74.63
2023-04-18T04:49:08.882Z,75.60
2023-04-18T04:51:36.710Z,75.73
2023-04-18T04:54:03.220Z,74.71
2023-04-18T04:56:29.700Z,75.11
2023-04-18T04:58:56.297Z,74.31
2023-04-18T05:01:22.801Z,74.86
2023-04-18T05:03:49.531Z,74.95
2023-04-18T05:06:16.022Z,74.03
2023-04-18T05:08:43.929Z,74.41
2023-04-18T05:11:10.360Z,74.10
2023-04-18T05:13:36.814Z,74.25
2023-04-18T05:16:03.488Z,73.87
2023-04-18T05:18:29.981Z,74.01
2023-04-18T05:20:56.451Z,74.43
2023-04-18T05:23:22.877Z,74.77
2023-04-18T05:25:50.754Z,76.04
2023-04-18T05:28:17.184Z,75.05
2023-04-18T05:30:44.737Z,73.31
2023-04-18T05:33:11.192Z,73.35
2023-04-18T05:35:37.682Z,73.10
2023-04-18T05:38:04.192Z,73.80
2023-04-18T05:40:30.611Z,73.02
2023-04-18T05:42:58.435Z,72.93
2023-04-18T05:45:25.094Z,71.88
2023-04-18T05:47:51.960Z,72.30
2023-04-18T05:50:18.433Z,72.65
2023-04-18T05:52:44.900Z,74.07
2023-04-18T05:55:11.410Z,74.33
2023-04-18T05:57:37.808Z,72.97
2023-04-18T06:00:06.652Z,72.97
2023-04-18T06:02:33.211Z,72.73
2023-04-18T06:04:59.834Z,73.30
2023-04-18T06:07:26.442Z,72.95
2023-04-18T06:09:52.880Z,72.64
2023-04-18T06:12:19.296Z,72.19
2023-04-18T06:14:45.748Z,71.11
2023-04-18T06:17:13.830Z,71.94
2023-04-18T06:19:40.369Z,73.12
2023-04-18T06:22:06.827Z,74.21
2023-04-18T06:24:33.349Z,73.17
2023-04-18T06:26:59.828Z,71.70
2023-04-18T06:29:26.265Z,69.74
2023-04-18T06:31:52.752Z,69.53
2023-04-18T06:34:20.605Z,68.40
2023-04-18T06:36:47.066Z,70.05
2023-04-18T06:39:13.613Z,70.20
2023-04-18T06:41:40.185Z,69.24
2023-04-18T06:44:06.628Z,70.42
2023-04-18T06:46:33.106Z,72.57
2023-04-18T06:48:59.659Z,71.53
2023-04-18T06:51:27.622Z,68.97
2023-04-18T06:53:54.113Z,67.12
2023-04-18T06:56:20.769Z,65.80
2023-04-18T06:58:47.308Z,64.74
2023-04-18T07:01:13.788Z,65.51
2023-04-18T07:03:40.395Z,65.12
2023-04-18T07:06:06.957Z,66.21
2023-04-18T07:08:34.869Z,68.89
2023-04-18T07:11:01.301Z,68.18
2023-04-18T07:13:27.800Z,67.12
2023-04-18T07:15:54.273Z,65.17
2023-04-18T07:18:30.323Z,64.35
2023-04-18T07:21:03.612Z,63.41
2023-04-18T07:23:30.105Z,62.32
2023-04-18T07:25:57.927Z,63.43
2023-04-18T07:28:24.395Z,63.28
2023-04-18T07:30:50.907Z,63.87
2023-04-18T07:33:17.479Z,64.25
2023-04-18T07:35:43.980Z,64.64
2023-04-18T07:38:10.426Z,63.02
2023-04-18T07:40:36.928Z,62.23
2023-04-18T07:43:04.807Z,62.61
2023-04-18T07:45:31.231Z,61.77
2023-04-18T07:47:57.756Z,60.44
2023-04-18T07:50:24.263Z,60.19
2023-04-18T07:52:50.801Z,61.23
2023-04-18T07:55:17.311Z,59.14
2023-04-18T07:57:44.883Z,58.83
2023-04-18T08:00:14.781Z,59.42
2023-04-18T08:02:41.592Z,57.83
2023-04-18T08:05:08.769Z,57.79
2023-04-18T08:07:35.303Z,58.03
2023-04-18T08:10:01.797Z,58.97
2023-04-18T08:12:28.245Z,58.61
2023-04-18T08:14:54.732Z,57.36
2023-04-18T08:17:22.723Z,56.85
2023-04-18T08:19:49.203Z,58.69
2023-04-18T08:22:15.725Z,58.76
2023-04-18T08:24:54.060Z,59.76
2023-04-18T08:27:28.572Z,59.82
2023-04-18T08:29:55.037Z,58.84
2023-04-18T08:32:22.866Z,58.19
2023-04-18T08:34:49.411Z,58.28
2023-04-18T08:37:15.838Z,59.32
2023-04-18T08:39:42.647Z,59.94
2023-04-18T08:42:09.111Z,59.60
2023-04-18T08:44:35.491Z,60.49
2023-04-18T08:47:02.060Z,61.85
2023-04-18T08:49:29.924Z,62.75
2023-04-18T08:51:56.362Z,62.36
2023-04-18T08:54:22.913Z,61.86
2023-04-18T08:57:03.234Z,61.06
2023-04-18T08:59:29.698Z,60.19
2023-04-18T09:01:57.005Z,60.45
2023-04-18T09:04:35.236Z,61.35
2023-04-18T09:07:01.841Z,61.39
2023-04-18T09:09:28.445Z,60.80
2023-04-18T09:12:05.135Z,60.13
2023-04-18T09:14:31.601Z,59.95
2023-04-18T09:16:58.195Z,59.68
2023-04-18T09:19:30.549Z,59.45
2023-04-18T09:21:58.948Z,59.35
2023-04-18T09:24:25.529Z,59.27
2023-04-18T09:26:52.495Z,59.54
2023-04-18T09:29:19.224Z,60.17
2023-04-18T09:31:58.523Z,60.24
2023-04-18T09:34:25.110Z,59.70
2023-04-18T09:37:11.719Z,59.24
2023-04-18T09:39:39.487Z,58.02
2023-04-18T09:42:06.029Z,57.57
2023-04-18T09:44:32.456Z,56.63
2023-04-18T09:46:58.910Z,56.65
2023-04-18T09:49:25.355Z,55.94
2023-04-18T09:51:52.477Z,56.99
2023-04-18T09:54:20.291Z,57.62
2023-04-18T09:56:47.384Z,58.04
2023-04-18T09:59:14.817Z,57.67
2023-04-18T10:01:54.411Z,57.08
2023-04-18T10:04:21.023Z,56.19
2023-04-18T10:06:47.747Z,55.83
2023-04-18T10:09:14.550Z,56.01
2023-04-18T10:11:42.648Z,55.25
2023-04-18T10:14:10.251Z,55.82
2023-04-18T10:16:36.857Z,54.92
2023-04-18T10:19:18.202Z,54.26
2023-04-18T10:21:50.592Z,55.06
2023-04-18T10:24:34.766Z,53.79
2023-04-18T10:27:02.679Z,53.54
2023-04-18T10:29:43.952Z,52.48
2023-04-18T10:32:10.449Z,53.13
2023-04-18T10:34:36.927Z,54.06
2023-04-18T10:37:03.577Z,53.19
2023-04-18T10:39:29.993Z,51.27
2023-04-18T10:41:57.773Z,54.69
2023-04-18T10:44:25.588Z,55.86
2023-04-18T10:47:22.337Z,57.15
2023-04-18T10:49:58.383Z,55.24
2023-04-18T10:52:24.885Z,54.17
2023-04-18T10:54:51.994Z,52.72
2023-04-18T10:57:18.549Z,52.20
2023-04-18T10:59:48.169Z,53.02
2023-04-18T11:02:19.219Z,52.44
2023-04-18T11:04:48.694Z,50.66
2023-04-18T11:07:15.173Z,50.56
2023-04-18T11:09:42.308Z,50.69
2023-04-18T11:12:10.608Z,49.88
2023-04-18T11:14:40.280Z,50.65
2023-04-18T11:17:21.052Z,50.48
2023-04-18T11:19:47.700Z,49.07
2023-04-18T11:22:14.285Z,48.65
2023-04-18T11:24:40.727Z,49.76
2023-04-18T11:27:08.483Z,50.45
2023-04-18T11:29:34.921Z,49.85
2023-04-18T11:32:01.423Z,49.90
2023-04-18T11:34:30.103Z,50.12
2023-04-18T11:36:56.572Z,51.50
2023-04-18T11:39:23.240Z,52.04
2023-04-18T11:41:49.713Z,52.01
2023-04-18T11:44:16.203Z,51.56
2023-04-18T11:46:42.656Z,51.76
2023-04-18T11:49:23.710Z,51.49
2023-04-18T11:51:51.525Z,50.90
2023-04-18T11:54:36.491Z,51.11
2023-04-18T11:57:03.012Z,53.25
2023-04-18T11:59:29.542Z,52.86
2023-04-18T12:01:58.987Z,51.47
2023-04-18T12:04:25.675Z,50.27
2023-04-18T12:06:53.784Z,50.84
2023-04-18T12:09:20.920Z,51.74
2023-04-18T12:11:56.448Z,52.03
2023-04-18T12:14:22.901Z,51.40
2023-04-18T12:16:49.360Z,52.21
2023-04-18T12:19:15.796Z,52.54
2023-04-18T12:21:55.362Z,53.35
2023-04-18T12:24:22.342Z,53.56
2023-04-18T12:26:48.797Z,53.47
2023-04-18T12:29:15.351Z,54.29
2023-04-18T12:31:41.955Z,54.26
2023-04-18T12:34:08.413Z,53.27
2023-04-18T12:36:34.944Z,54.56
2023-04-18T12:39:02.760Z,53.08
2023-04-18T12:41:29.274Z,52.94
2023-04-18T12:43:55.700Z,53.96
2023-04-18T12:46:22.146Z,53.60
2023-04-18T12:48:48.626Z,52.88
2023-04-18T12:51:15.104Z,51.72
2023-04-18T12:53:41.541Z,52.55
2023-04-18T12:56:09.587Z,52.99
2023-04-18T12:58:36.034Z,51.79
2023-04-18T13:01:02.604Z,50.66
2023-04-18T13:03:29.227Z,51.38
2023-04-18T13:05:55.732Z,50.17
2023-04-18T13:08:22.172Z,51.20
2023-04-18T13:10:48.694Z,52.76
2023-04-18T13:13:16.609Z,53.18
2023-04-18T13:15:43.155Z,52.55
2023-04-18T13:18:09.631Z,52.75
2023-04-18T13:20:36.081Z,52.51
2023-04-18T13:23:02.630Z,52.44
2023-04-18T13:25:29.086Z,53.29
2023-04-18T13:27:55.615Z,52.95
2023-04-18T13:30:23.440Z,52.54
2023-04-18T13:32:50.106Z,53.17
2023-04-18T13:35:16.640Z,51.49
2023-04-18T13:37:43.112Z,52.24
2023-04-18T13:40:09.905Z,52.96
2023-04-18T13:42:36.762Z,53.16
2023-04-18T13:45:03.390Z,52.93
2023-04-18T13:47:31.306Z,53.15
2023-04-18T13:49:58.022Z,51.88
2023-04-18T13:52:24.609Z,52.73
2023-04-18T13:54:51.069Z,53.36
2023-04-18T13:57:17.507Z,52.67
2023-04-18T13:59:44.045Z,53.57
2023-04-18T14:02:10.755Z,54.18
2023-04-18T14:04:39.050Z,54.09
2023-04-18T14:07:05.571Z,55.20
2023-04-18T14:09:32.010Z,55.91
2023-04-18T14:11:58.474Z,54.00
2023-04-18T14:14:24.960Z,54.39
2023-04-18T14:16:54.134Z,54.86
2023-04-18T14:19:20.665Z,55.69
2023-04-18T14:21:52.995Z,56.17
2023-04-18T14:24:19.420Z,57.45
2023-04-18T14:26:48.546Z,59.14
2023-04-18T14:29:15.173Z,59.87
2023-04-18T14:31:42.068Z,58.67
2023-04-18T14:34:15.408Z,59.50
2023-04-18T14:36:41.852Z,58.99
2023-04-18T14:39:09.749Z,57.52
2023-04-18T14:41:36.218Z,57.10
2023-04-18T14:44:02.700Z,58.25
2023-04-18T14:46:29.158Z,57.19
2023-04-18T14:48:55.635Z,56.70
2023-04-18T14:51:22.665Z,55.43
2023-04-18T14:53:49.086Z,56.19
2023-04-18T14:56:17.034Z,56.36
2023-04-18T14:58:43.511Z,56.41
2023-04-18T15:01:09.931Z,56.36
2023-04-18T15:03:36.572Z,58.03
2023-04-18T15:06:03.221Z,57.53
2023-04-18T15:08:31.351Z,58.42
2023-04-18T15:10:59.153Z,61.04
2023-04-18T15:13:26.943Z,63.70
2023-04-18T15:15:53.879Z,66.53
2023-04-18T15:18:20.348Z,67.25
2023-04-18T15:20:46.773Z,66.83
2023-04-18T15:23:13.208Z,67.38
2023-04-18T15:25:39.669Z,68.93
2023-04-18T15:28:06.095Z,69.24
2023-04-18T15:30:33.996Z,68.05
2023-04-18T15:33:00.504Z,68.21
2023-04-18T15:35:27.078Z,68.69
2023-04-18T15:37:53.536Z,68.97
2023-04-18T15:40:20.040Z,67.14
2023-04-18T15:42:46.486Z,66.10
2023-04-18T15:45:12.971Z,65.63
2023-04-18T15:47:40.876Z,64.31
2023-04-18T15:50:07.986Z,64.06
2023-04-18T15:52:34.518Z,64.71
2023-04-18T15:55:00.997Z,64.91
2023-04-18T15:57:27.456Z,65.89
2023-04-18T15:59:53.924Z,65.51
2023-04-18T16:02:20.424Z,64.98
2023-04-18T16:04:48.408Z,64.82
2023-04-18T16:07:14.900Z,64.49
2023-04-18T16:09:41.333Z,65.04
2023-04-18T16:12:07.793Z,64.32
2023-04-18T16:14:34.227Z,64.09
2023-04-18T16:17:00.666Z,63.68
2023-04-18T16:19:27.128Z,65.39
2023-04-18T16:21:54.970Z,64.30
2023-04-18T16:24:21.393Z,63.66
2023-04-18T16:26:47.883Z,62.64
2023-04-18T16:29:14.373Z,63.77
2023-04-18T16:31:40.870Z,63.84
2023-04-18T16:34:07.321Z,63.59
2023-04-18T16:36:33.862Z,63.77
2023-04-18T16:39:01.691Z,63.05
2023-04-18T16:41:28.118Z,63.10
2023-04-18T16:43:54.582Z,63.39
2023-04-18T16:46:21.064Z,63.90
2023-04-18T16:48:47.510Z,64.33
2023-04-18T16:51:13.987Z,64.62
2023-04-18T16:53:40.451Z,64.75
2023-04-18T16:56:08.406Z,64.03
2023-04-18T16:58:34.832Z,64.18
2023-04-18T17:01:01.392Z,64.44
2023-04-18T17:03:27.931Z,64.60
2023-04-18T17:05:54.524Z,63.73
2023-04-18T17:08:20.979Z,63.16
2023-04-18T17:10:47.401Z,61.85
2023-04-18T17:13:15.219Z,61.63
2023-04-18T17:15:41.657Z,61.96
2023-04-18T17:18:08.135Z,61.26
2023-04-18T17:20:34.636Z,61.03
2023-04-18T17:23:01.060Z,60.82
2023-04-18T17:25:27.617Z,62.40
2023-04-18T17:27:54.053Z,62.74
2023-04-18T17:30:22.035Z,63.07
2023-04-18T17:32:48.559Z,62.74
2023-04-18T17:35:15.081Z,63.73
2023-04-18T17:37:41.568Z,62.62
2023-04-18T17:40:11.199Z,62.97
2023-04-18T17:42:37.649Z,62.65
2023-04-18T17:45:04.475Z,63.36
2023-04-18T17:47:32.370Z,63.29
2023-04-18T17:49:58.983Z,62.99
2023-04-18T17:52:25.614Z,63.55
2023-04-18T17:54:52.019Z,62.99
2023-04-18T17:57:18.538Z,63.24
2023-04-18T17:59:45.058Z,62.34
2023-04-18T18:02:11.668Z,62.70
2023-04-18T18:04:39.724Z,62.42
2023-04-18T18:07:06.306Z,62.15
2023-04-18T18:09:32.770Z,63.34
2023-04-18T18:11:59.290Z,62.15
2023-04-18T18:14:26.260Z,61.99
2023-04-18T18:16:52.748Z,62.16
2023-04-18T18:19:19.633Z,62.25
2023-04-18T18:21:47.430Z,62.75
2023-04-18T18:24:13.902Z,63.06
2023-04-18T18:26:40.330Z,62.84
2023-04-18T18:29:06.795Z,62.15
2023-04-18T18:31:33.271Z,61.68
2023-04-18T18:33:59.805Z,62.29
2023-04-18T18:36:26.229Z,61.80
2023-04-18T18:38:54.103Z,62.13
2023-04-18T18:41:20.897Z,62.73
2023-04-18T18:43:47.348Z,62.89
2023-04-18T18:46:14.198Z,62.63
2023-04-18T18:48:40.749Z,62.47
2023-04-18T18:51:07.216Z,62.10
2023-04-18T18:53:33.734Z,63.82
2023-04-18T18:56:01.823Z,63.02
2023-04-18T18:58:28.265Z,63.24
2023-04-18T19:00:54.712Z,62.93
2023-04-18T19:03:21.485Z,61.97
2023-04-18T19:05:48.176Z,62.54
2023-04-18T19:08:14.640Z,62.07
2023-04-18T19:10:41.123Z,62.30
2023-04-18T19:13:08.993Z,62.72
2023-04-18T19:15:35.493Z,61.84
2023-04-18T19:18:02.075Z,62.75
2023-04-18T19:20:29.297Z,64.06
2023-04-18T19:22:55.780Z,64.75
2023-04-18T19:25:22.213Z,64.68
2023-04-18T19:27:48.723Z,64.21
2023-04-18T19:30:16.588Z,63.89
2023-04-18T19:32:43.066Z,63.96
2023-04-18T19:35:09.625Z,64.16
2023-04-18T19:37:36.079Z,63.21
2023-04-18T19:40:02.534Z,63.07
2023-04-18T19:42:29.019Z,63.78
2023-04-18T19:44:55.487Z,63.32
2023-04-18T19:47:23.391Z,63.34
2023-04-18T19:49:49.882Z,62.79
2023-04-18T19:52:16.372Z,64.19
2023-04-18T19:54:42.786Z,65.21
2023-04-18T19:57:09.474Z,64.52
2023-04-18T19:59:35.927Z,63.98
2023-04-18T20:02:05.198Z,64.66
2023-04-18T20:04:34.255Z,64.79
2023-04-18T20:07:00.866Z,65.66
2023-04-18T20:09:27.302Z,67.47
2023-04-18T20:11:53.743Z,68.79
2023-04-18T20:14:20.225Z,68.78
2023-04-18T20:16:46.714Z,68.55
2023-04-18T20:19:14.002Z,67.79
2023-04-18T20:21:42.304Z,67.95
2023-04-18T20:24:08.771Z,66.86
2023-04-18T20:26:35.200Z,67.56
2023-04-18T20:29:01.619Z,67.94
2023-04-18T20:31:28.126Z,68.20
2023-04-18T20:33:54.561Z,68.72
2023-04-18T20:36:21.033Z,70.49
2023-04-18T20:38:48.854Z,70.65
2023-04-18T20:41:17.300Z,69.47
2023-04-18T20:43:43.875Z,69.93
2023-04-18T20:46:10.350Z,70.70
2023-04-18T20:48:36.831Z,69.80
2023-04-18T20:51:03.284Z,69.34
2023-04-18T20:53:29.779Z,69.97
2023-04-18T20:55:57.575Z,70.52
2023-04-18T20:58:24.058Z,70.08
2023-04-18T21:00:50.514Z,69.44
2023-04-18T21:03:17.232Z,70.12
2023-04-18T21:05:43.959Z,70.92
2023-04-18T21:08:10.394Z,71.95
2023-04-18T21:10:36.835Z,71.61
2023-04-18T21:13:04.636Z,70.65
2023-04-18T21:15:31.154Z,69.44
2023-04-18T21:17:57.663Z,69.78
2023-04-18T21:20:24.197Z,69.34
2023-04-18T21:22:50.662Z,68.65
2023-04-18T21:25:17.169Z,68.28
2023-04-18T21:27:43.620Z,68.53
2023-04-18T21:30:11.910Z,67.70
2023-04-18T21:32:38.429Z,67.68
2023-04-18T21:35:05.276Z,68.76
2023-04-18T21:37:31.716Z,68.72
2023-04-18T21:39:58.160Z,68.88
2023-04-18T21:42:24.708Z,69.67
2023-04-18T21:44:51.141Z,68.24
2023-04-18T21:47:18.968Z,67.79
2023-04-18T21:49:45.461Z,68.51
2023-04-18T21:52:11.884Z,69.08
2023-04-18T21:54:38.322Z,68.15
2023-04-18T21:57:04.805Z,67.48
2023-04-18T21:59:31.400Z,67.59
2023-04-18T22:01:57.937Z,69.28
2023-04-18T22:04:26.115Z,68.05
2023-04-18T22:06:52.974Z,69.94
2023-04-18T22:09:19.468Z,69.44
2023-04-18T22:11:45.914Z,68.88
2023-04-18T22:14:12.389Z,68.60
2023-04-18T22:16:39.065Z,68.22
2023-04-18T22:19:05.818Z,67.84
2023-04-18T22:21:33.637Z,68.86
2023-04-18T22:24:00.111Z,68.94
2023-04-18T22:26:26.582Z,69.48
2023-04-18T22:28:53.078Z,69.05
2023-04-18T22:31:19.559Z,69.18
2023-04-18T22:33:46.056Z,68.07
2023-04-18T22:36:12.487Z,68.04
2023-04-18T22:38:40.296Z,67.44
2023-04-18T22:41:06.731Z,67.45
2023-04-18T22:43:33.187Z,68.77
2023-04-18T22:45:59.681Z,69.05
2023-04-18T22:48:26.141Z,68.02
2023-04-18T22:50:52.619Z,67.61
2023-04-18T22:53:19.047Z,67.75
2023-04-18T22:55:46.932Z,68.43
2023-04-18T22:58:13.383Z,68.39
2023-04-18T23:00:39.891Z,67.87
2023-04-18T23:03:06.532Z,67.77
2023-04-18T23:05:33.061Z,68.78
2023-04-18T23:08:00.527Z,68.88
2023-04-18T23:10:27.189Z,69.45
2023-04-18T23:12:55.063Z,68.15
2023-04-18T23:15:21.541Z,68.85
2023-04-18T23:17:48.126Z,69.38
2023-04-18T23:20:14.694Z,70.20
2023-04-18T23:22:41.131Z,69.85
2023-04-18T23:25:07.745Z,70.21
2023-04-18T23:27:34.295Z,68.55
2023-04-18T23:30:02.076Z,67.83
2023-04-18T23:32:28.646Z,67.17
2023-04-18T23:34:55.096Z,67.87
2023-04-18T23:37:21.562Z,67.63
2023-04-18T23:39:48.134Z,68.19
2023-04-18T23:42:14.609Z,68.37
2023-04-18T23:44:41.081Z,67.58
2023-04-18T23:47:08.988Z,69.64
2023-04-18T23:49:35.468Z,68.92
2023-04-18T23:52:01.923Z,69.10
2023-04-18T23:54:28.517Z,69.60
2023-04-18T23:56:54.942Z,69.03
2023-04-18T23:59:21.385Z,70.01
